Flight Track Log - Related Links

Times and Time Zones

All times are in EDT time to prevent confusion due to time zone crossing. See the AAL832 flight status page for this flight to view local times or setup timezone preferences in your user account.

Time Position Orientation Groundspeed Altitude Reporting Facility
EDT Latitude Longitude Course Direction KTS MPH feet Rate Location/Type
Thu 06:02:32 PM 41.9833 -87.8500 180° South 170 196 2,300  Level Chicago TRACON
Thu 06:03:32 PM 41.9333 -87.8000 143° Southeast 241 277 4,700 2,750 Climbing Chicago TRACON
Thu 06:04:00 PM 41.6659 -87.7223 180° South  Level Estimated
Thu 06:04:32 PM 41.8667 -87.8167 191° South 257 296 7,800  Level Chicago TRACON
Thu 06:05:00 PM 41.5606 -87.6613 176° South  Level Estimated
Thu 06:06:00 PM 41.4553 -87.6004 189° South  Level Estimated
Thu 06:06:35 PM 41.7297 -87.8508 191° South 271 312 13,300  Level Chicago Center
Thu 06:07:00 PM 41.3499 -87.5397 180° South  Level Estimated
Thu 06:07:37 PM 41.6283 -87.8594 184° South 301 346 14,900  Level Chicago Center
Thu 06:08:40 PM 41.5311 -87.8375 170° South 347 399 17,300 2,129 Climbing Chicago Center
Thu 06:09:41 PM 41.4317 -87.8103 168° South 358 412 19,300 2,049 Climbing Chicago Center
Thu 06:10:43 PM 41.3269 -87.7897 172° South 371 427 21,500 1,920 Climbing Chicago Center
Thu 06:11:46 PM 41.2197 -87.7703 172° South 383 441 23,300 1,728 Climbing Chicago Center
Thu 06:12:48 PM 41.1103 -87.7428 169° South 397 457 25,100 1,306 Climbing Chicago Center
Thu 06:13:50 PM 40.9969 -87.7181 171° South 408 470 26,000 629 Climbing Chicago Center
Thu 06:14:52 PM 40.8583 -87.6850 170° South 420 483 26,400 919 Climbing Chicago Center
Thu 06:15:54 PM 40.7450 -87.6594 170° South 417 480 27,900 1,403 Climbing Chicago Center
Thu 06:16:56 PM 40.6283 -87.6328 170° South 423 487 29,300 1,306 Climbing Chicago Center
Thu 06:17:58 PM 40.5097 -87.6064 170° South 431 496 30,600 1,548 Climbing Chicago Center
Thu 06:19:00 PM 40.3900 -87.5797 170° South 438 504 32,500 1,161 Climbing Chicago Center
Thu 06:20:02 PM 40.2489 -87.5494 171° South 429 494 33,000 240 Climbing Chicago Center
Thu 06:21:05 PM 40.1325 -87.5236 170° South 433 498 33,000  Level Chicago Center
Thu 06:21:53 PM 40.0347 -87.5028 171° South 435 501 33,000  Level Indianapolis Center
Thu 06:22:55 PM 39.9153 -87.4767 170° South 437 503 33,000  Level Indianapolis Center
Thu 06:23:57 PM 39.7956 -87.4850 183° South 431 496 33,000  Level Indianapolis Center
Thu 06:24:59 PM 39.6758 -87.5022 186° South 435 501 33,000  Level Indianapolis Center
Thu 06:26:01 PM 39.5319 -87.5225 186° South 437 503 33,000 339 Level Indianapolis Center
Thu 06:27:03 PM 39.4108 -87.5231 180° South 444 511 33,700 1,161 Climbing Indianapolis Center
Thu 06:28:05 PM 39.2936 -87.4931 169° South 433 498 35,400 1,306 Climbing Indianapolis Center
Thu 06:29:07 PM 39.1767 -87.4614 168° South 433 498 36,400 919 Climbing Indianapolis Center
Thu 06:30:09 PM 39.0572 -87.4297 168° South 436 502 37,300 823 Climbing Indianapolis Center
Thu 06:31:11 PM 38.9364 -87.3989 169° South 439 505 38,100 774 Climbing Indianapolis Center
Thu 06:32:13 PM 38.7906 -87.3603 168° South 444 511 38,900 435 Climbing Indianapolis Center
Thu 06:33:15 PM 38.6694 -87.3267 168° South 447 514 39,000 48 Climbing Indianapolis Center
Thu 06:34:17 PM 38.5475 -87.2958 169° South 447 514 39,000  Level Indianapolis Center
Thu 06:35:19 PM 38.4256 -87.2642 169° South 448 516 39,000  Level Indianapolis Center
Thu 06:36:21 PM 38.2836 -87.2247 168° South 452 520 39,000  Level Indianapolis Center
Thu 06:37:23 PM 38.1617 -87.1967 170° South 449 517 39,000  Level Indianapolis Center
Thu 06:38:25 PM 38.0411 -87.1644 168° South 446 513 39,000  Level Indianapolis Center
Thu 06:39:27 PM 37.9208 -87.1325 168° South 442 509 39,000  Level Indianapolis Center
Thu 06:40:29 PM 37.7986 -87.1003 168° South 446 513 39,000 48 Level Indianapolis Center
Thu 06:41:31 PM 37.6769 -87.0678 168° South 447 514 39,100  Climbing Indianapolis Center
Thu 06:42:33 PM 37.5300 -87.0297 168° South 448 516 39,000 -55 Descending Indianapolis Center
Thu 06:43:20 PM 37.4344 -87.0086 170° South 450 518 39,000  Level Memphis Center
Thu 06:44:20 PM 37.3150 -86.9772 168° South 450 518 39,000 50 Level Memphis Center
Thu 06:45:20 PM 37.1911 -86.9458 169° South 455 524 39,100  Climbing Memphis Center
Thu 06:46:20 PM 37.0653 -86.9150 169° South 455 524 39,000 -50 Descending Memphis Center
Thu 06:47:20 PM 36.9564 -86.8886 169° South 450 518 39,000  Level Memphis Center
Thu 06:48:20 PM 36.8344 -86.8575 168° South 450 518 39,000  Level Memphis Center
Thu 06:49:20 PM 36.7108 -86.8267 169° South 450 518 39,000  Level Memphis Center
Thu 06:50:20 PM 36.5889 -86.7931 168° South 450 518 39,000  Level Memphis Center
Thu 06:51:20 PM 36.4692 -86.7597 167° South 445 512 39,000  Level Memphis Center
Thu 06:52:20 PM 36.3328 -86.7322 171° South 445 512 39,000  Level Memphis Center
Thu 06:53:20 PM 36.2131 -86.7017 168° South 455 524 39,000  Level Memphis Center
Thu 06:54:20 PM 36.1011 -86.6528 161° South 436 502 39,000  Level Memphis Center
Thu 06:55:20 PM 36.0067 -86.5647 143° Southeast 424 488 39,000  Level Memphis Center
Thu 06:56:20 PM 35.9231 -86.4864 143° Southeast 430 495 39,000  Level Memphis Center
Thu 06:58:37 PM 35.6958 -86.2736 143° Southeast 429 494 39,000  Level Atlanta Center
Thu 06:59:37 PM 35.6017 -86.1842 142° Southeast 434 499 39,000  Level Atlanta Center
Thu 07:00:37 PM 35.5153 -86.1081 144° Southeast 434 499 39,000  Level Atlanta Center
Thu 07:01:37 PM 35.4083 -86.0111 144° Southeast 440 506 39,000  Level Atlanta Center
Thu 07:02:37 PM 35.3117 -85.9197 142° Southeast 440 506 39,000  Level Atlanta Center
Thu 07:03:37 PM 35.2253 -85.8414 143° Southeast 440 506 39,000  Level Atlanta Center
Thu 07:04:37 PM 35.1306 -85.7556 143° Southeast 434 499 39,000  Level Atlanta Center
Thu 07:05:37 PM 35.0317 -85.6647 143° Southeast 434 499 39,000  Level Atlanta Center
Thu 07:06:37 PM 34.9325 -85.5792 145° Southeast 439 505 39,000  Level Atlanta Center
Thu 07:07:37 PM 34.8333 -85.4914 144° Southeast 444 511 39,000  Level Atlanta Center
Thu 07:08:37 PM 34.7322 -85.4011 144° Southeast 444 511 39,000  Level Atlanta Center
Thu 07:09:37 PM 34.6331 -85.3136 144° Southeast 444 511 39,000  Level Atlanta Center
Thu 07:10:37 PM 34.5336 -85.2264 144° Southeast 444 511 39,000  Level Atlanta Center
Thu 07:11:37 PM 34.4261 -85.1292 143° Southeast 444 511 39,000  Level Atlanta Center
Thu 07:12:37 PM 34.3286 -85.0450 145° Southeast 444 511 39,000  Level Atlanta Center
Thu 07:13:37 PM 34.2250 -84.9558 145° Southeast 449 517 39,000  Level Atlanta Center
Thu 07:14:37 PM 34.1358 -84.8769 144° Southeast 444 511 39,000  Level Atlanta Center
Thu 07:15:37 PM 34.0319 -84.7883 145° Southeast 455 524 39,000  Level Atlanta Center
Thu 07:16:37 PM 33.9303 -84.6997 144° Southeast 455 524 39,000  Level Atlanta Center
Thu 07:17:37 PM 33.8283 -84.6164 146° Southeast 455 524 39,000  Level Atlanta Center
Thu 07:18:37 PM 33.7139 -84.5158 144° Southeast 455 524 39,000  Level Atlanta Center
Thu 07:19:37 PM 33.6225 -84.4406 146° Southeast 450 518 39,000  Level Atlanta Center
Thu 07:20:37 PM 33.5036 -84.3850 159° South 458 527 39,000  Level Atlanta Center
Thu 07:21:37 PM 33.3847 -84.3375 162° South 458 527 39,000  Level Atlanta Center
Thu 07:22:37 PM 33.2658 -84.2872 161° South 453 521 39,000  Level Atlanta Center
Thu 07:23:37 PM 33.1450 -84.2372 161° South 458 527 39,000  Level Atlanta Center
Thu 07:24:37 PM 33.0281 -84.1900 161° South 458 527 39,000  Level Atlanta Center
Thu 07:25:37 PM 32.9114 -84.1378 159° South 458 527 39,000  Level Atlanta Center
Thu 07:26:37 PM 32.7944 -84.0883 160° South 453 521 39,000  Level Atlanta Center
Thu 07:27:37 PM 32.6756 -84.0439 163° South 447 514 39,000  Level Atlanta Center
Thu 07:28:37 PM 32.5586 -83.9919 159° South 447 514 39,000  Level Atlanta Center
Thu 07:29:37 PM 32.4436 -83.9453 161° South 447 514 39,000  Level Atlanta Center
Thu 07:31:56 PM 32.1653 -83.8325 161° South 441 507 39,000  Level Jacksonville Center
Thu 07:32:56 PM 32.0528 -83.7872 161° South 441 507 39,000  Level Jacksonville Center
Thu 07:33:56 PM 31.9361 -83.7397 161° South 441 507 39,000  Level Jacksonville Center
Thu 07:34:56 PM 31.8194 -83.6922 161° South 441 507 39,000  Level Jacksonville Center
Thu 07:35:56 PM 31.6986 -83.6789 175° South 434 499 39,000  Level Jacksonville Center
Thu 07:36:56 PM 31.5775 -83.6706 177° South 434 499 39,000  Level Jacksonville Center
Thu 07:37:56 PM 31.4606 -83.6672 179° South 453 521 39,000  Level Jacksonville Center
Thu 07:38:56 PM 31.3394 -83.6589 177° South 453 521 39,000  Level Jacksonville Center
Thu 07:39:56 PM 31.2164 -83.6506 177° South 448 516 39,000  Level Jacksonville Center
Thu 07:40:56 PM 31.0975 -83.6397 176° South 438 504 39,000  Level Jacksonville Center
Thu 07:41:56 PM 30.9742 -83.6317 177° South 438 504 39,000  Level Jacksonville Center
Thu 07:42:56 PM 30.8533 -83.6208 176° South 438 504 39,000  Level Jacksonville Center
Thu 07:43:56 PM 30.7322 -83.6128 177° South 438 504 39,000  Level Jacksonville Center
Thu 07:44:56 PM 30.6131 -83.6069 178° South 438 504 39,000  Level Jacksonville Center
Thu 07:45:56 PM 30.4964 -83.5989 177° South 433 498 39,000  Level Jacksonville Center
Thu 07:46:56 PM 30.3775 -83.5883 176° South 433 498 39,000  Level Jacksonville Center
Thu 07:47:56 PM 30.2583 -83.5803 177° South 433 498 39,000  Level Jacksonville Center
Thu 07:48:56 PM 30.1394 -83.5747 178° South 433 498 39,000  Level Jacksonville Center
Thu 07:49:56 PM 30.0183 -83.5667 177° South 433 498 39,000  Level Jacksonville Center
Thu 07:50:56 PM 29.8994 -83.5586 177° South 433 498 39,000  Level Jacksonville Center
Thu 07:51:56 PM 29.7806 -83.5506 177° South 433 498 39,000  Level Jacksonville Center
Thu 07:52:56 PM 29.6572 -83.5378 175° South 438 504 39,000  Level Jacksonville Center
Thu 07:53:56 PM 29.5383 -83.5300 177° South 438 504 39,000  Level Jacksonville Center
Thu 07:54:56 PM 29.4172 -83.5219 177° South 443 510 39,000  Level Jacksonville Center
Thu 07:55:56 PM 29.2964 -83.5142 177° South 443 510 39,000  Level Jacksonville Center
Thu 07:56:56 PM 29.1775 -83.5061 177° South 443 510 39,000  Level Jacksonville Center
Thu 07:57:56 PM 29.0542 -83.4958 176° South 443 510 39,000  Level Jacksonville Center
Thu 07:58:56 PM 28.9311 -83.4906 178° South 443 510 39,000  Level Jacksonville Center
Thu 08:00:57 PM 28.6739 -83.4700 176° South 438 504 39,000  Level Miami Center
Thu 08:01:57 PM 28.5511 -83.4603 176° South 438 504 39,000  Level Miami Center
Thu 08:02:57 PM 28.4264 -83.4528 177° South 438 504 39,000  Level Miami Center
Thu 08:03:57 PM 28.3061 -83.4433 176° South 438 504 39,000  Level Miami Center
Thu 08:04:57 PM 28.1792 -83.4361 177° South 444 511 39,000  Level Miami Center
Thu 08:05:57 PM 28.0567 -83.4267 176° South 444 511 39,000  Level Miami Center
Thu 08:06:57 PM 27.9381 -83.3728 158° South 435 501 39,000  Level Miami Center
Thu 08:07:57 PM 27.8339 -83.2800 142° Southeast 445 512 39,000  Level Miami Center
Thu 08:08:57 PM 27.7206 -83.1961 147° Southeast 442 509 39,000  Level Miami Center
Thu 08:09:57 PM 27.5919 -83.1844 175° South 456 525 39,000 -150 Level Miami Center
Thu 08:10:57 PM 27.4664 -83.1914 183° South 456 525 38,700 -600 Descending Miami Center
Thu 08:11:57 PM 27.3367 -83.1983 183° South 463 533 37,800 -1,050 Descending Miami Center
Thu 08:12:57 PM 27.2092 -83.2053 183° South 463 533 36,600 -1,600 Descending Miami Center
Thu 08:13:57 PM 27.0775 -83.2097 182° South 468 539 34,600 -1,900 Descending Miami Center
Thu 08:14:57 PM 26.9481 -83.2144 182° South 468 539 32,800 -1,800 Descending Miami Center
Thu 08:15:57 PM 26.8247 -83.2217 183° South 462 532 31,000 -1,850 Descending Miami Center
Thu 08:16:57 PM 26.7053 -83.2336 185° South 450 518 29,100 -1,650 Descending Miami Center
Thu 08:17:57 PM 26.5956 -83.2092 169° South 407 468 27,700 -1,150 Descending Miami Center
Thu 08:18:57 PM 26.5425 -83.0903 116° Southeast 363 418 26,800 -950 Descending Miami Center
Thu 08:19:57 PM 26.5083 -82.9608 106° East 385 443 25,800 -1,000 Descending Miami Center
Thu 08:20:57 PM 26.4697 -82.8339 109° East 403 464 24,800 -950 Descending Miami Center
Thu 08:21:57 PM 26.4350 -82.7114 108° East 414 476 23,900 -400 Descending Miami Center
Thu 08:22:57 PM 26.3961 -82.5867 109° East 414 476 24,000 50 Climbing Miami Center
Thu 08:23:57 PM 26.3611 -82.4644 108° East 414 476 24,000  Level Miami Center
Thu 08:24:57 PM 26.3242 -82.3422 109° East 414 476 24,000  Level Miami Center
Thu 08:25:57 PM 26.2869 -82.2178 108° East 414 476 24,000  Level Miami Center
Thu 08:26:57 PM 26.2517 -82.0983 108° East 424 488 24,000  Level Miami Center
Thu 08:27:57 PM 26.2142 -81.9786 109° East 424 488 24,000 -500 Level Miami Center
Thu 08:28:57 PM 26.1789 -81.8544 108° East 424 488 23,000 -1,450 Descending Miami Center
Thu 08:29:57 PM 26.1431 -81.7372 109° East 418 481 21,100 -1,850 Descending Miami Center
Thu 08:30:57 PM 26.1050 -81.6225 110° East 406 467 19,300 -1,900 Descending Miami Center
Thu 08:31:57 PM 26.0669 -81.5075 110° East 395 455 17,300 -1,250 Descending Miami Center
Thu 08:32:57 PM 26.0328 -81.3978 109° East 384 442 16,800 -1,300 Descending Miami Center
Thu 08:33:57 PM 25.9967 -81.2878 110° East 379 436 14,700 -2,283 Descending Miami Center
Thu 08:34:50 PM 25.9600 -81.1847 112° Southeast 374 430 12,500 -2,333 Descending Miami Center
Thu 08:35:27 PM 25.9389 -81.1217 110° East 360 414 11,200 -1,500 Descending Miami Center
Thu 08:36:22 PM 25.9058 -81.0328 112° Southeast 324 373 10,200 -1,000 Descending Miami Center
Thu 08:36:57 PM 25.8775 -81.0039 137° Southeast 341 392 9,700 -1,082 Descending Miami Center
Thu 08:37:23 PM 25.8428 -80.9728 141° Southeast 296 341 9,100 -1,300 Descending Miami Center
Thu 08:37:57 PM 25.8272 -80.9308 112° Southeast 312 359 8,400 -1,522 Descending Miami Center
Thu 08:38:30 PM 25.7994 -80.8789 121° Southeast 297 342 7,400 -1,500 Descending Miami Center
Thu 08:38:57 PM 25.7919 -80.8486 105° East 300 345 6,900 -1,377 Descending Miami Center
Thu 08:39:31 PM 25.7622 -80.7969 123° Southeast 291 335 6,000 -1,400 Descending Miami Center
Thu 08:39:57 PM 25.7650 -80.7694 84° East 289 333 5,500 -1,082 Descending Miami Center
Thu 08:40:32 PM 25.7644 -80.7117 91° East 276 318 4,900 -1,100 Descending Miami Center
Thu 08:40:57 PM 25.7692 -80.6867 78° East 272 313 4,400 -806 Descending Miami Center
Thu 08:41:39 PM 25.7686 -80.6267 91° East 231 266 4,000 -500 Descending Miami Center
Thu 08:41:57 PM 25.7731 -80.6128 70° East 254 292 3,900 -873 Descending Miami Center
Thu 08:42:34 PM 25.7722 -80.5689 91° East 204 235 3,200 -1,000 Descending Miami Center
Thu 08:42:57 PM 25.7747 -80.5483 82° East 230 265 2,900 -197 Descending Miami Center
Thu 08:43:35 PM 25.7739 -80.5067 91° East 201 231 3,000  Climbing Miami Center
Thu 08:43:57 PM 25.7806 -80.4861 70° East 207 238 2,900 -590 Descending Miami Center
Thu 08:44:36 PM 25.7772 -80.4469 95° East 180 207 2,400 -769 Descending Miami Center

Login

Don't have an account? Register now (free) for customized features, flight alerts, and more!